createdAt,value
2022-08-30T00:00:15.317Z,27.98
2022-08-30T00:02:43.724Z,27.98
2022-08-30T00:05:11.207Z,27.91
2022-08-30T00:07:38.416Z,27.87
2022-08-30T00:10:06.120Z,27.78
2022-08-30T00:12:33.243Z,27.78
2022-08-30T00:15:00.469Z,27.79
2022-08-30T00:17:27.587Z,27.88
2022-08-30T00:19:56.038Z,27.94
2022-08-30T00:22:23.171Z,28.02
2022-08-30T00:24:50.496Z,28.00
2022-08-30T00:27:17.563Z,27.92
2022-08-30T00:29:44.725Z,27.92
2022-08-30T00:32:12.546Z,27.93
2022-08-30T00:34:39.742Z,27.80
2022-08-30T00:37:06.953Z,27.73
2022-08-30T00:39:34.292Z,27.73
2022-08-30T00:42:01.396Z,27.73
2022-08-30T00:44:28.556Z,27.70
2022-08-30T00:46:55.825Z,27.56
2022-08-30T00:49:24.090Z,27.33
2022-08-30T00:51:52.894Z,27.07
2022-08-30T00:54:20.414Z,27.18
2022-08-30T00:56:49.129Z,27.18
2022-08-30T00:59:16.433Z,27.19
2022-08-30T01:01:43.905Z,27.25
2022-08-30T01:04:14.029Z,27.22
2022-08-30T01:06:41.953Z,27.29
2022-08-30T01:09:09.490Z,27.45
2022-08-30T01:11:38.109Z,27.46
2022-08-30T01:14:06.850Z,27.56
2022-08-30T01:16:35.749Z,27.63
2022-08-30T01:19:03.956Z,27.64
2022-08-30T01:21:38.647Z,27.68
2022-08-30T01:24:07.876Z,27.62
2022-08-30T01:26:36.191Z,27.50
2022-08-30T01:29:07.736Z,27.61
2022-08-30T01:31:37.186Z,27.50
2022-08-30T01:34:07.500Z,27.50
2022-08-30T01:36:37.832Z,27.50
2022-08-30T01:39:15.175Z,27.51
2022-08-30T01:41:43.626Z,27.52
2022-08-30T01:44:12.455Z,27.50
2022-08-30T01:46:43.604Z,27.46
2022-08-30T01:49:15.309Z,27.36
2022-08-30T01:51:42.739Z,27.33
2022-08-30T01:54:10.373Z,27.27
2022-08-30T01:56:37.644Z,27.37
2022-08-30T01:59:05.387Z,27.37
2022-08-30T02:01:37.093Z,27.35
2022-08-30T02:04:05.784Z,27.33
2022-08-30T02:06:33.419Z,27.39
2022-08-30T02:09:00.806Z,27.47
2022-08-30T02:11:28.220Z,27.53
2022-08-30T02:13:55.417Z,27.57
2022-08-30T02:16:24.769Z,27.60
2022-08-30T02:18:53.617Z,27.66
2022-08-30T02:21:21.244Z,27.69
2022-08-30T02:23:48.584Z,27.69
2022-08-30T02:26:17.135Z,27.71
2022-08-30T02:28:50.173Z,27.76
2022-08-30T02:31:20.834Z,27.80
2022-08-30T02:33:52.893Z,27.73
2022-08-30T02:36:21.578Z,27.53
2022-08-30T02:38:50.587Z,27.64
2022-08-30T02:41:18.880Z,27.70
2022-08-30T02:43:46.724Z,27.71
2022-08-30T02:46:13.943Z,27.71
2022-08-30T02:48:41.222Z,27.75
2022-08-30T02:51:11.620Z,27.77
2022-08-30T02:53:40.309Z,27.75
2022-08-30T02:56:08.672Z,27.83
2022-08-30T02:58:36.487Z,27.83
2022-08-30T03:01:05.922Z,27.81
2022-08-30T03:03:33.837Z,27.82
2022-08-30T03:06:03.375Z,27.76
2022-08-30T03:08:31.957Z,27.72
2022-08-30T03:11:00.177Z,27.75
2022-08-30T03:13:27.313Z,27.78
2022-08-30T03:15:55.170Z,27.79
2022-08-30T03:18:23.046Z,27.82
2022-08-30T03:20:54.560Z,27.84
2022-08-30T03:23:23.230Z,27.79
2022-08-30T03:25:50.661Z,27.83
2022-08-30T03:28:17.911Z,27.80
2022-08-30T03:30:45.122Z,27.79
2022-08-30T03:33:12.267Z,27.70
2022-08-30T03:35:39.547Z,27.70
2022-08-30T03:38:06.844Z,27.71
2022-08-30T03:40:34.243Z,27.65
2022-08-30T03:43:01.317Z,27.66
2022-08-30T03:45:28.760Z,27.65
2022-08-30T03:47:56.004Z,27.61
2022-08-30T03:50:23.362Z,27.67
2022-08-30T03:52:50.532Z,27.64
2022-08-30T03:55:17.688Z,27.70
2022-08-30T03:57:44.921Z,27.69
2022-08-30T04:00:14.620Z,27.65
2022-08-30T04:02:42.206Z,27.68
2022-08-30T04:05:10.992Z,27.62
2022-08-30T04:07:38.591Z,27.61
2022-08-30T04:10:08.717Z,27.68
2022-08-30T04:12:38.563Z,27.69
2022-08-30T04:15:06.609Z,27.70
2022-08-30T04:17:33.763Z,27.69
2022-08-30T04:20:01.087Z,27.69
2022-08-30T04:22:28.496Z,27.67
2022-08-30T04:24:55.822Z,27.68
2022-08-30T04:27:22.978Z,27.68
2022-08-30T04:29:50.175Z,27.63
2022-08-30T04:32:17.732Z,27.54
2022-08-30T04:34:45.443Z,27.55
2022-08-30T04:37:12.602Z,27.52
2022-08-30T04:39:40.942Z,27.50
2022-08-30T04:42:08.196Z,27.51
2022-08-30T04:44:35.772Z,27.55
2022-08-30T04:47:03.101Z,27.51
2022-08-30T04:49:32.503Z,27.52
2022-08-30T04:51:59.844Z,27.55
2022-08-30T04:54:26.987Z,27.53
2022-08-30T04:56:54.507Z,27.52
2022-08-30T04:59:22.285Z,27.48
2022-08-30T05:01:49.625Z,27.50
2022-08-30T05:04:16.820Z,27.58
2022-08-30T05:06:44.385Z,27.55
2022-08-30T05:09:11.926Z,27.60
2022-08-30T05:11:39.132Z,27.43
2022-08-30T05:14:06.941Z,27.35
2022-08-30T05:16:34.280Z,27.36
2022-08-30T05:19:01.553Z,27.44
2022-08-30T05:21:29.718Z,27.45
2022-08-30T05:24:00.196Z,27.52
2022-08-30T05:26:30.597Z,27.55
2022-08-30T05:28:58.320Z,27.60
2022-08-30T05:31:31.923Z,27.64
2022-08-30T05:33:59.244Z,27.61
2022-08-30T05:36:28.819Z,27.57
2022-08-30T05:38:56.564Z,27.52
2022-08-30T05:41:26.381Z,27.36
2022-08-30T05:43:59.002Z,27.34
2022-08-30T05:46:29.636Z,27.28
2022-08-30T05:48:57.800Z,27.26
2022-08-30T05:51:28.884Z,27.30
2022-08-30T05:53:57.757Z,27.35
2022-08-30T05:56:36.888Z,27.40
2022-08-30T05:59:07.251Z,27.44
2022-08-30T06:01:43.571Z,27.49
2022-08-30T06:04:13.509Z,27.54
2022-08-30T06:06:42.914Z,27.58
2022-08-30T06:09:11.728Z,27.64
2022-08-30T06:11:39.073Z,27.68
2022-08-30T06:14:06.791Z,27.69
2022-08-30T06:16:35.745Z,27.74
2022-08-30T06:19:09.711Z,27.61
2022-08-30T06:21:50.167Z,27.56
2022-08-30T06:24:27.782Z,27.36
2022-08-30T06:27:03.487Z,27.34
2022-08-30T06:29:33.761Z,27.40
2022-08-30T06:32:01.036Z,27.48
2022-08-30T06:34:28.283Z,27.39
2022-08-30T06:36:55.378Z,27.37
2022-08-30T06:39:22.642Z,27.36
2022-08-30T06:41:50.280Z,27.28
2022-08-30T06:44:45.648Z,27.26
2022-08-30T06:47:13.108Z,27.20
2022-08-30T06:49:40.284Z,27.24
2022-08-30T06:52:08.081Z,27.35
2022-08-30T06:54:38.777Z,27.39
2022-08-30T06:57:05.928Z,27.38
2022-08-30T06:59:33.739Z,27.48
2022-08-30T07:02:01.080Z,27.45
2022-08-30T07:04:28.220Z,27.39
2022-08-30T07:06:55.528Z,27.38
2022-08-30T07:09:22.981Z,27.46
2022-08-30T07:11:51.564Z,27.48
2022-08-30T07:14:19.879Z,27.46
2022-08-30T07:16:47.440Z,27.40
2022-08-30T07:19:21.119Z,27.38
2022-08-30T07:21:49.837Z,27.32
2022-08-30T07:24:17.664Z,27.27
2022-08-30T07:26:52.157Z,27.28
2022-08-30T07:29:21.551Z,27.32
2022-08-30T07:31:49.077Z,27.28
2022-08-30T07:34:16.623Z,27.43
2022-08-30T07:36:47.135Z,27.45
2022-08-30T07:39:20.364Z,27.46
2022-08-30T07:41:48.887Z,27.47
2022-08-30T07:44:32.417Z,27.40
2022-08-30T07:47:03.102Z,27.33
2022-08-30T07:49:30.723Z,27.40
2022-08-30T07:51:58.287Z,27.49
2022-08-30T07:54:25.519Z,27.58
2022-08-30T07:56:55.741Z,27.58
2022-08-30T07:59:23.804Z,27.59
2022-08-30T08:01:51.134Z,27.66
2022-08-30T08:04:19.613Z,27.71
2022-08-30T08:06:47.048Z,27.71
2022-08-30T08:09:14.124Z,27.75
2022-08-30T08:11:41.782Z,27.83
2022-08-30T08:14:09.326Z,27.85
2022-08-30T08:16:37.445Z,27.96
2022-08-30T08:19:09.226Z,28.05
2022-08-30T08:21:37.289Z,28.17
2022-08-30T08:24:04.825Z,28.34
2022-08-30T08:26:35.822Z,28.42
2022-08-30T08:29:04.106Z,28.50
2022-08-30T08:31:33.532Z,28.62
2022-08-30T08:34:03.083Z,28.63
2022-08-30T08:36:31.680Z,28.54
2022-08-30T08:39:17.700Z,28.58
2022-08-30T08:41:56.101Z,28.53
2022-08-30T08:45:08.771Z,28.57
2022-08-30T08:47:43.348Z,28.63
2022-08-30T08:50:12.938Z,28.55
2022-08-30T08:53:45.268Z,28.59
2022-08-30T08:56:15.235Z,28.66
2022-08-30T08:58:48.228Z,28.72
2022-08-30T09:01:19.136Z,28.84
2022-08-30T09:03:46.660Z,28.96
2022-08-30T09:06:54.105Z,28.86
2022-08-30T09:09:37.375Z,28.67
2022-08-30T09:12:06.997Z,28.64
2022-08-30T09:14:46.049Z,28.65
2022-08-30T09:17:16.111Z,28.81
2022-08-30T09:19:46.065Z,28.73
2022-08-30T09:22:31.238Z,28.85
2022-08-30T09:25:05.161Z,28.86
2022-08-30T09:27:38.434Z,28.73
2022-08-30T09:30:11.421Z,28.91
2022-08-30T09:32:58.374Z,28.93
2022-08-30T09:35:42.514Z,28.88
2022-08-30T09:38:14.980Z,28.90
2022-08-30T09:40:48.687Z,28.92
2022-08-30T09:43:28.832Z,28.93
2022-08-30T09:46:00.061Z,29.01
2022-08-30T09:48:27.152Z,29.02
2022-08-30T09:51:15.301Z,29.11
2022-08-30T09:54:17.495Z,29.13
2022-08-30T09:57:01.102Z,29.12
2022-08-30T09:59:47.714Z,29.26
2022-08-30T10:02:30.269Z,29.06
2022-08-30T10:05:23.723Z,29.14
2022-08-30T10:08:01.334Z,29.28
2022-08-30T10:10:45.851Z,29.39
2022-08-30T10:13:45.262Z,29.50
2022-08-30T10:16:38.446Z,29.53
2022-08-30T10:19:31.708Z,29.51
2022-08-30T10:22:07.038Z,29.65
2022-08-30T10:24:58.207Z,29.71
2022-08-30T10:27:35.191Z,29.88
2022-08-30T10:30:08.170Z,30.05
2022-08-30T10:32:44.290Z,30.12
2022-08-30T10:35:39.223Z,30.27
2022-08-30T10:38:23.705Z,30.36
2022-08-30T10:41:13.904Z,30.39
2022-08-30T10:46:43.191Z,30.44
2022-08-30T10:49:16.298Z,30.31
2022-08-30T10:51:53.046Z,30.32
2022-08-30T10:54:54.725Z,30.40
2022-08-30T10:57:22.023Z,30.59
2022-08-30T11:00:05.778Z,30.68
2022-08-30T11:02:56.075Z,30.70
2022-08-30T11:06:10.666Z,30.93
2022-08-30T11:09:08.042Z,31.08
2022-08-30T11:11:51.423Z,31.19
2022-08-30T11:14:20.709Z,31.12
2022-08-30T11:16:56.530Z,31.23
2022-08-30T11:19:32.068Z,31.29
2022-08-30T11:22:32.494Z,31.47
2022-08-30T11:25:38.718Z,31.51
2022-08-30T11:28:08.969Z,31.55
2022-08-30T11:30:39.074Z,31.67
2022-08-30T11:33:13.007Z,31.58
2022-08-30T11:35:49.990Z,31.52
2022-08-30T11:38:37.265Z,31.58
2022-08-30T11:41:30.050Z,31.57
2022-08-30T11:44:29.518Z,31.61
2022-08-30T11:46:59.540Z,31.75
2022-08-30T11:49:46.216Z,31.85
2022-08-30T11:52:28.869Z,31.98
2022-08-30T11:55:17.954Z,32.13
2022-08-30T11:57:52.689Z,32.13
2022-08-30T12:00:29.507Z,32.31
2022-08-30T12:03:02.244Z,32.42
2022-08-30T12:05:39.619Z,32.49
2022-08-30T12:08:28.413Z,32.48
2022-08-30T12:11:26.673Z,32.53
2022-08-30T12:13:56.033Z,32.66
2022-08-30T12:16:35.905Z,32.78
2022-08-30T12:19:19.202Z,32.94
2022-08-30T12:21:56.942Z,33.05
2022-08-30T12:24:29.986Z,33.22
2022-08-30T12:26:59.075Z,33.30
2022-08-30T12:29:29.202Z,33.29
2022-08-30T12:32:03.420Z,33.20
2022-08-30T12:34:37.270Z,33.23
2022-08-30T12:37:08.489Z,33.11
2022-08-30T12:39:39.464Z,33.20
2022-08-30T12:42:28.715Z,33.22
2022-08-30T12:45:00.923Z,33.30
2022-08-30T12:47:37.994Z,33.24
2022-08-30T12:50:06.623Z,33.21
2022-08-30T12:52:56.721Z,33.16
2022-08-30T12:55:30.300Z,33.12
2022-08-30T12:58:11.308Z,33.20
2022-08-30T13:00:40.953Z,33.09
2022-08-30T13:03:33.178Z,32.93
2022-08-30T13:06:00.689Z,32.91
2022-08-30T13:08:45.768Z,32.92
2022-08-30T13:11:29.369Z,33.07
2022-08-30T13:14:18.410Z,33.21
2022-08-30T13:16:46.969Z,33.28
2022-08-30T13:19:35.458Z,33.39
2022-08-30T13:22:04.748Z,33.48
2022-08-30T13:24:31.857Z,33.39
2022-08-30T13:27:03.934Z,33.46
2022-08-30T13:29:31.991Z,33.51
2022-08-30T13:31:59.137Z,33.38
2022-08-30T13:34:26.642Z,33.36
2022-08-30T13:36:56.262Z,33.29
2022-08-30T13:39:23.850Z,32.99
2022-08-30T13:41:51.875Z,32.92
2022-08-30T13:44:19.652Z,32.99
2022-08-30T13:46:54.617Z,33.07
2022-08-30T13:49:44.675Z,33.22
2022-08-30T13:52:21.009Z,33.27
2022-08-30T13:54:56.507Z,33.14
2022-08-30T14:00:19.270Z,33.31
2022-08-30T14:02:54.724Z,33.36
2022-08-30T14:05:47.702Z,33.34
2022-08-30T14:11:02.374Z,32.97
2022-08-30T14:13:30.074Z,32.91
2022-08-30T14:18:48.158Z,32.64
2022-08-30T14:21:16.702Z,32.53
2022-08-30T14:23:44.986Z,32.57
2022-08-30T14:26:21.522Z,32.58
2022-08-30T14:28:51.754Z,32.53
2022-08-30T14:31:19.904Z,32.59
2022-08-30T14:33:47.976Z,32.72
2022-08-30T14:36:16.033Z,32.68
2022-08-30T14:38:44.290Z,32.66
2022-08-30T14:41:12.037Z,32.76
2022-08-30T14:43:40.723Z,32.73
2022-08-30T14:46:09.273Z,32.56
2022-08-30T14:48:38.867Z,32.36
2022-08-30T14:51:17.607Z,32.23
2022-08-30T14:53:45.825Z,32.18
2022-08-30T14:56:16.871Z,32.21
2022-08-30T14:58:52.581Z,32.09
2022-08-30T15:01:20.772Z,31.89
2022-08-30T15:03:48.235Z,31.77
2022-08-30T15:06:15.736Z,31.76
2022-08-30T15:08:43.420Z,31.84
2022-08-30T15:11:17.902Z,31.94
2022-08-30T15:13:45.503Z,31.96
2022-08-30T15:16:18.941Z,31.92
2022-08-30T15:18:47.214Z,31.84
2022-08-30T15:21:15.044Z,31.84
2022-08-30T15:23:42.317Z,31.91
2022-08-30T15:26:09.936Z,31.94
2022-08-30T15:28:37.320Z,31.99
2022-08-30T15:31:08.676Z,31.95
2022-08-30T15:33:38.093Z,31.79
2022-08-30T15:36:07.469Z,31.63
2022-08-30T15:38:34.898Z,31.52
2022-08-30T15:41:06.791Z,31.42
2022-08-30T15:43:34.813Z,31.25
2022-08-30T15:46:16.198Z,30.85
2022-08-30T15:48:45.486Z,30.70
2022-08-30T15:51:13.913Z,30.73
2022-08-30T15:53:41.173Z,30.52
2022-08-30T15:56:10.749Z,30.36
2022-08-30T15:58:39.523Z,30.27
2022-08-30T16:01:09.104Z,30.19
2022-08-30T16:03:38.016Z,30.09
2022-08-30T16:06:07.624Z,30.02
2022-08-30T16:08:34.752Z,29.91
2022-08-30T16:11:02.262Z,29.77
2022-08-30T16:13:29.384Z,29.80
2022-08-30T16:16:01.124Z,29.79
2022-08-30T16:18:28.515Z,29.84
2022-08-30T16:21:04.598Z,29.59
2022-08-30T16:23:33.526Z,29.53
2022-08-30T16:26:02.373Z,29.41
2022-08-30T16:28:32.304Z,29.48
2022-08-30T16:31:00.181Z,29.49
2022-08-30T16:33:30.431Z,29.44
2022-08-30T16:35:59.648Z,29.23
2022-08-30T16:38:27.482Z,29.20
2022-08-30T16:40:55.323Z,29.23
2022-08-30T16:43:23.990Z,29.24
2022-08-30T16:45:51.110Z,29.20
2022-08-30T16:48:18.783Z,29.20
2022-08-30T16:50:46.276Z,29.24
2022-08-30T16:53:14.015Z,29.33
2022-08-30T16:55:41.772Z,29.25
2022-08-30T16:58:11.276Z,29.09
2022-08-30T17:00:39.589Z,28.98
2022-08-30T17:03:15.750Z,28.85
2022-08-30T17:05:46.013Z,28.75
2022-08-30T17:08:13.959Z,28.48
2022-08-30T17:10:43.862Z,28.53
2022-08-30T17:13:17.810Z,28.43
2022-08-30T17:15:46.081Z,28.39
2022-08-30T17:18:15.272Z,28.47
2022-08-30T17:20:42.969Z,28.44
2022-08-30T17:23:12.539Z,28.49
2022-08-30T17:25:40.317Z,28.36
2022-08-30T17:28:08.534Z,28.28
2022-08-30T17:30:36.058Z,28.14
2022-08-30T17:33:03.446Z,27.97
2022-08-30T17:35:31.155Z,27.97
2022-08-30T17:37:58.372Z,27.80
2022-08-30T17:40:25.589Z,27.81
2022-08-30T17:42:53.119Z,27.66
2022-08-30T17:45:20.481Z,27.52
2022-08-30T17:47:47.723Z,27.32
2022-08-30T17:50:15.528Z,27.23
2022-08-30T17:52:46.757Z,27.14
2022-08-30T17:55:14.294Z,27.17
2022-08-30T17:57:42.416Z,27.13
2022-08-30T18:00:13.120Z,27.24
2022-08-30T18:02:43.293Z,27.17
2022-08-30T18:05:10.895Z,27.07
2022-08-30T18:07:38.252Z,27.06
2022-08-30T18:10:05.915Z,27.16
2022-08-30T18:12:33.823Z,27.15
2022-08-30T18:15:01.831Z,27.08
2022-08-30T18:17:41.387Z,26.97
2022-08-30T18:20:09.540Z,27.10
2022-08-30T18:22:38.436Z,27.27
2022-08-30T18:25:06.732Z,27.23
2022-08-30T18:27:33.954Z,27.12
2022-08-30T18:30:11.733Z,27.01
2022-08-30T18:32:39.142Z,26.88
2022-08-30T18:35:06.819Z,26.76
2022-08-30T18:37:36.614Z,26.94
2022-08-30T18:40:05.654Z,26.86
2022-08-30T18:42:33.166Z,26.69
2022-08-30T18:45:08.258Z,26.76
2022-08-30T18:47:42.548Z,26.75
2022-08-30T18:50:09.944Z,26.78
2022-08-30T18:52:37.056Z,26.49
2022-08-30T18:55:07.839Z,26.18
2022-08-30T18:57:35.887Z,26.19
2022-08-30T19:00:04.098Z,26.32
2022-08-30T19:02:32.170Z,26.31
2022-08-30T19:04:59.307Z,26.29
2022-08-30T19:07:27.201Z,26.54
2022-08-30T19:09:59.031Z,26.82
2022-08-30T19:12:27.538Z,27.09
2022-08-30T19:14:54.768Z,27.25
2022-08-30T19:17:23.986Z,27.39
2022-08-30T19:19:52.394Z,27.40
2022-08-30T19:22:21.606Z,27.49
2022-08-30T19:24:50.662Z,27.57
2022-08-30T19:27:21.580Z,27.58
2022-08-30T19:30:08.683Z,27.55
2022-08-30T19:32:35.972Z,27.61
2022-08-30T19:35:03.577Z,27.65
2022-08-30T19:37:30.776Z,27.77
2022-08-30T19:39:59.200Z,27.84
2022-08-30T19:42:28.171Z,27.84
2022-08-30T19:44:55.348Z,27.77
2022-08-30T19:47:22.668Z,27.76
2022-08-30T19:49:49.875Z,27.58
2022-08-30T19:52:19.148Z,27.67
2022-08-30T19:54:49.175Z,27.59
2022-08-30T19:57:17.101Z,27.63
2022-08-30T19:59:44.365Z,27.65
2022-08-30T20:02:13.720Z,27.52
2022-08-30T20:04:42.602Z,27.56
2022-08-30T20:07:10.536Z,27.59
2022-08-30T20:09:38.046Z,27.68
2022-08-30T20:12:05.517Z,27.72
2022-08-30T20:14:32.894Z,27.78
2022-08-30T20:17:02.250Z,27.83
2022-08-30T20:19:30.616Z,27.84
2022-08-30T20:22:07.175Z,27.73
2022-08-30T20:24:36.998Z,27.80
2022-08-30T20:27:04.715Z,27.73
2022-08-30T20:29:32.460Z,27.72
2022-08-30T20:31:59.741Z,27.69
2022-08-30T20:34:27.695Z,27.71
2022-08-30T20:36:56.473Z,27.78
2022-08-30T20:39:24.631Z,27.64
2022-08-30T20:41:52.171Z,27.71
2022-08-30T20:44:19.690Z,27.74
2022-08-30T20:46:48.250Z,27.70
2022-08-30T20:49:15.775Z,27.76
2022-08-30T20:51:43.088Z,27.79
2022-08-30T20:54:10.476Z,27.78
2022-08-30T20:56:37.772Z,27.80
2022-08-30T20:59:05.875Z,27.82
2022-08-30T21:01:35.805Z,27.74
2022-08-30T21:04:06.507Z,27.74
2022-08-30T21:06:37.803Z,27.75
2022-08-30T21:09:07.509Z,27.79
2022-08-30T21:11:36.775Z,27.79
2022-08-30T21:14:05.000Z,27.87
2022-08-30T21:16:32.301Z,27.90
2022-08-30T21:18:59.496Z,27.93
2022-08-30T21:21:28.070Z,27.90
2022-08-30T21:23:59.435Z,27.86
2022-08-30T21:26:27.188Z,27.81
2022-08-30T21:28:55.669Z,27.84
2022-08-30T21:31:25.863Z,27.85
2022-08-30T21:33:55.277Z,27.83
2022-08-30T21:36:43.385Z,27.85
2022-08-30T21:39:11.593Z,27.82
2022-08-30T21:41:39.503Z,27.80
2022-08-30T21:44:09.535Z,27.79
2022-08-30T21:46:37.378Z,27.71
2022-08-30T21:49:06.796Z,27.74
2022-08-30T21:51:37.639Z,27.70
2022-08-30T21:54:08.647Z,27.73
2022-08-30T21:56:38.019Z,27.73
2022-08-30T21:59:06.271Z,27.76
2022-08-30T22:01:34.518Z,27.73
2022-08-30T22:04:07.085Z,27.72
2022-08-30T22:06:35.786Z,27.64
2022-08-30T22:09:06.296Z,27.54
2022-08-30T22:11:35.095Z,27.53
2022-08-30T22:14:03.011Z,27.52
2022-08-30T22:16:30.957Z,27.58
2022-08-30T22:18:58.459Z,27.57
2022-08-30T22:21:28.120Z,27.63
2022-08-30T22:23:56.484Z,27.67
2022-08-30T22:26:25.187Z,27.66
2022-08-30T22:28:54.164Z,27.67
2022-08-30T22:31:22.824Z,27.68
2022-08-30T22:33:51.549Z,27.72
2022-08-30T22:36:21.841Z,27.75
2022-08-30T22:38:51.460Z,27.72
2022-08-30T22:41:21.427Z,27.68
2022-08-30T22:43:58.976Z,27.62
2022-08-30T22:46:34.206Z,27.53
2022-08-30T22:49:06.625Z,27.60
2022-08-30T22:51:34.959Z,27.67
2022-08-30T22:54:04.820Z,27.71
2022-08-30T22:56:34.717Z,27.71
2022-08-30T22:59:02.400Z,27.78
2022-08-30T23:01:33.692Z,27.76
2022-08-30T23:04:01.957Z,27.71
2022-08-30T23:06:30.016Z,27.69
2022-08-30T23:08:57.779Z,27.76
2022-08-30T23:11:25.528Z,27.79
2022-08-30T23:13:53.449Z,27.79
2022-08-30T23:16:23.139Z,27.84
2022-08-30T23:18:50.530Z,27.86
2022-08-30T23:21:24.088Z,27.85
2022-08-30T23:24:11.590Z,27.89
2022-08-30T23:27:16.475Z,27.88
2022-08-30T23:30:02.262Z,27.87
2022-08-30T23:32:48.008Z,27.88
2022-08-30T23:35:33.573Z,27.90
2022-08-30T23:38:23.714Z,27.85
2022-08-30T23:41:09.981Z,27.82
2022-08-30T23:43:56.462Z,27.86
2022-08-30T23:46:42.067Z,27.80
2022-08-30T23:49:27.643Z,27.77
2022-08-30T23:52:13.644Z,27.83
2022-08-30T23:54:59.149Z,27.81
2022-08-30T23:57:45.991Z,27.80
